Time;durP1;ratioP1;P1;durP2;ratioP2;P2;SDS_P1;SDS_P2;PMS_P1;PMS_P2;Temp;Humidity;BMP_temperature;BMP_pressure;BME280_temperature;BME280_humidity;BME280_pressure;Samples;Min_cycle;Max_cycle;Signal;HPM_P1;HPM_P2
2024/01/04 00:01:35;;;;;;;72.85;69.45;;;;;;;10.82;71.06;99458.34;5022550;28;20422;-73
2024/01/04 00:04:00;;;;;;;70.53;66.95;;;;;;;10.81;71.23;99467.53;5038758;28;20433;-72
2024/01/04 00:06:26;;;;;;;72.10;68.60;;;;;;;10.82;70.83;99469.13;5013194;28;20029;-73
2024/01/04 00:08:51;;;;;;;72.72;69.43;;;;;;;10.81;71.14;99477.53;5013190;28;20042;-72
2024/01/04 00:11:16;;;;;;;73.07;69.57;;;;;;;10.83;71.14;99480.75;5029989;28;20450;-72
2024/01/04 00:13:42;;;;;;;72.45;69.22;;;;;;;10.85;71.07;99494.00;5030771;28;20041;-74
2024/01/04 00:16:11;;;;;;;72.57;69.22;;;;;;;10.83;71.05;99492.38;5013660;28;20030;-72
2024/01/04 00:18:37;;;;;;;71.00;67.75;;;;;;;10.84;71.20;99501.28;5033652;28;20294;-74
2024/01/04 00:21:02;;;;;;;73.40;70.13;;;;;;;10.83;70.79;99505.91;5018555;28;20029;-74
2024/01/04 00:23:28;;;;;;;71.28;67.85;;;;;;;10.85;70.89;99513.69;5023211;28;20038;-73
2024/01/04 00:25:54;;;;;;;73.10;69.80;;;;;;;10.87;70.96;99532.34;5023305;28;20029;-73
2024/01/04 00:28:19;;;;;;;71.55;68.35;;;;;;;10.86;71.04;99525.31;5032337;28;20512;-74
2024/01/04 00:30:44;;;;;;;74.35;71.03;;;;;;;10.85;70.94;99540.72;5030883;28;20384;-73
2024/01/04 00:33:10;;;;;;;73.50;70.20;;;;;;;10.86;71.09;99536.13;5024201;28;20045;-73
2024/01/04 00:35:35;;;;;;;74.75;71.25;;;;;;;10.86;71.11;99547.75;5018608;28;20526;-73
2024/01/04 00:38:01;;;;;;;72.13;68.85;;;;;;;10.89;70.88;99557.22;5032833;28;20056;-72
2024/01/04 00:40:28;;;;;;;76.70;73.20;;;;;;;10.89;71.09;99552.59;5030634;28;20470;-73
2024/01/04 00:42:53;;;;;;;73.10;69.78;;;;;;;10.89;71.06;99562.63;5030543;28;20053;-72
2024/01/04 00:45:19;;;;;;;73.13;69.78;;;;;;;10.88;70.90;99566.38;5028384;28;20068;-74
2024/01/04 00:47:44;;;;;;;73.00;69.70;;;;;;;10.87;70.78;99570.19;5036853;28;20076;-73
2024/01/04 00:50:10;;;;;;;73.10;69.88;;;;;;;10.86;70.95;99566.66;5038329;28;20042;-74
2024/01/04 00:52:35;;;;;;;74.47;70.88;;;;;;;10.86;71.08;99573.94;5035857;28;20493;-72
2024/01/04 00:55:01;;;;;;;75.03;71.63;;;;;;;10.87;70.83;99575.56;5013020;28;20033;-73
2024/01/04 00:57:26;;;;;;;76.00;72.50;;;;;;;10.88;70.79;99578.00;5015713;28;20522;-74
2024/01/04 00:59:52;;;;;;;77.93;74.32;;;;;;;10.89;70.96;99585.03;5011191;28;20129;-73
2024/01/04 01:02:17;;;;;;;70.15;66.95;;;;;;;10.87;70.71;99591.78;5012120;28;20038;-73
2024/01/04 01:04:42;;;;;;;71.88;68.55;;;;;;;10.87;70.65;99597.19;5022539;28;20401;-72
2024/01/04 01:07:08;;;;;;;77.82;74.32;;;;;;;10.87;70.83;99591.78;5020204;28;20505;-73
2024/01/04 01:09:33;;;;;;;79.00;75.20;;;;;;;10.88;70.93;99594.19;5036216;28;20033;-74
2024/01/04 01:11:59;;;;;;;72.18;68.47;;;;;;;10.88;71.32;99594.19;5037645;28;20557;-75
2024/01/04 01:14:24;;;;;;;73.20;69.03;;;;;;;10.89;70.85;99598.53;5036662;28;20044;-73
2024/01/04 01:16:49;;;;;;;76.63;73.22;;;;;;;10.89;70.86;99603.13;5012088;28;20038;-72
2024/01/04 01:19:15;;;;;;;71.57;68.38;;;;;;;10.88;70.70;99610.41;5015477;28;20052;-73
2024/01/04 01:21:41;;;;;;;74.63;71.03;;;;;;;10.87;70.85;99619.59;5018708;28;20037;-74
2024/01/04 01:24:06;;;;;;;72.32;68.78;;;;;;;10.88;70.90;99623.09;5021527;28;20081;-73
2024/01/04 01:26:32;;;;;;;75.70;72.05;;;;;;;10.89;70.66;99632.84;5025062;28;20180;-73
2024/01/04 01:28:57;;;;;;;73.85;70.45;;;;;;;10.90;70.81;99627.16;5046464;28;20080;-72
2024/01/04 01:31:22;;;;;;;77.30;73.78;;;;;;;10.90;70.60;99639.88;5016461;28;20034;-73
2024/01/04 01:33:48;;;;;;;72.60;69.35;;;;;;;10.90;70.83;99646.06;5021948;28;20076;-75
2024/01/04 01:36:13;;;;;;;76.45;72.85;;;;;;;10.90;70.57;99647.97;5011942;28;20124;-74
2024/01/04 01:38:39;;;;;;;77.40;73.80;;;;;;;10.89;70.79;99651.75;5034704;28;20088;-72
2024/01/04 01:41:04;;;;;;;74.60;71.18;;;;;;;10.88;70.68;99659.03;5014160;28;20470;-72
2024/01/04 01:43:29;;;;;;;77.30;73.38;;;;;;;10.87;70.74;99656.63;5013556;28;20041;-74
2024/01/04 01:45:55;;;;;;;76.60;73.20;;;;;;;10.85;70.39;99664.97;5027418;28;20045;-72
2024/01/04 01:48:21;;;;;;;69.35;66.15;;;;;;;10.86;70.91;99672.03;5022051;28;20389;-74
2024/01/04 01:50:46;;;;;;;76.57;73.07;;;;;;;10.87;70.53;99673.63;5021004;28;20030;-74
2024/01/04 01:53:12;;;;;;;70.50;67.32;;;;;;;10.86;70.54;99666.63;5012593;28;20466;-75
2024/01/04 01:55:37;;;;;;;74.28;70.32;;;;;;;10.86;70.56;99679.28;5027722;28;20061;-72
2024/01/04 01:58:04;;;;;;;75.18;71.05;;;;;;;10.86;70.65;99677.44;5025527;28;20053;-73
2024/01/04 02:00:31;;;;;;;69.43;66.28;;;;;;;10.87;70.86;99679.03;5034974;28;20038;-74
2024/01/04 02:02:56;;;;;;;78.65;74.20;;;;;;;10.87;70.51;99683.63;5020817;28;20379;-73
2024/01/04 02:05:22;;;;;;;69.07;65.90;;;;;;;10.88;70.68;99686.06;5013699;28;20036;-73
2024/01/04 02:07:48;;;;;;;75.10;71.60;;;;;;;10.89;70.80;99698.50;5014092;28;20037;-75
2024/01/04 02:10:13;;;;;;;74.78;71.30;;;;;;;10.89;70.54;99701.19;5022067;28;20523;-72
2024/01/04 02:12:39;;;;;;;75.63;71.80;;;;;;;10.89;70.73;99706.59;5028899;28;20049;-73
2024/01/04 02:15:05;;;;;;;74.55;71.10;;;;;;;10.89;70.83;99700.41;5021447;28;20081;-73
2024/01/04 02:17:30;;;;;;;72.97;69.70;;;;;;;10.89;70.84;99713.91;5023270;28;20045;-75
2024/01/04 02:19:57;;;;;;;79.55;75.93;;;;;;;10.87;70.57;99721.47;4994051;28;20054;-73
2024/01/04 02:22:22;;;;;;;69.40;65.32;;;;;;;10.86;70.46;99731.47;5030038;28;20041;-73
2024/01/04 02:24:47;;;;;;;71.50;68.20;;;;;;;10.82;70.42;99738.47;5033574;28;20057;-75
2024/01/04 02:27:13;;;;;;;72.43;69.20;;;;;;;10.80;70.66;99727.91;5022029;28;20034;-73
2024/01/04 02:29:39;;;;;;;68.03;64.82;;;;;;;10.77;70.39;99739.28;5017967;28;20034;-73
2024/01/04 02:32:05;;;;;;;76.13;72.38;;;;;;;10.75;70.61;99746.03;5032422;28;20389;-74
2024/01/04 02:34:30;;;;;;;69.18;66.07;;;;;;;10.75;70.76;99748.72;5023612;28;20042;-72
2024/01/04 02:36:57;;;;;;;73.18;69.88;;;;;;;10.75;70.76;99740.63;5027856;28;20096;-72
2024/01/04 02:39:22;;;;;;;77.60;73.75;;;;;;;10.74;70.69;99741.72;5026321;28;20038;-73
2024/01/04 02:41:47;;;;;;;77.60;74.00;;;;;;;10.75;70.40;99738.72;5020058;28;20612;-74
2024/01/04 02:44:13;;;;;;;70.75;67.55;;;;;;;10.77;70.78;99743.88;5016021;28;20041;-73
2024/01/04 02:46:38;;;;;;;72.15;68.65;;;;;;;10.79;70.74;99747.91;5015435;28;20454;-73
2024/01/04 02:49:04;;;;;;;72.35;69.07;;;;;;;10.80;70.61;99757.63;5024592;28;20029;-71
2024/01/04 02:51:29;;;;;;;76.82;73.10;;;;;;;10.81;70.45;99755.78;5024838;28;20037;-71
2024/01/04 02:53:55;;;;;;;72.85;69.57;;;;;;;10.80;70.55;99754.94;5021079;28;20065;-72
2024/01/04 02:56:21;;;;;;;74.30;70.93;;;;;;;10.81;70.55;99772.78;5025219;28;20034;-72
2024/01/04 02:58:46;;;;;;;78.60;74.93;;;;;;;10.82;70.68;99766.28;5039677;28;20458;-73
2024/01/04 03:01:19;;;;;;;71.60;68.00;;;;;;;10.83;70.48;99759.81;5033824;28;20056;-72
2024/01/04 03:03:44;;;;;;;74.35;70.85;;;;;;;10.85;70.61;99767.66;5027155;28;20042;-72
2024/01/04 03:06:10;;;;;;;75.93;72.53;;;;;;;10.86;70.68;99771.16;5029724;28;20342;-72
2024/01/04 03:08:35;;;;;;;75.82;71.13;;;;;;;10.86;70.62;99776.56;5033592;28;20033;-73
2024/01/04 03:11:01;;;;;;;72.22;68.88;;;;;;;10.88;70.47;99785.22;5014433;28;20030;-73
2024/01/04 03:13:26;;;;;;;72.38;68.78;;;;;;;10.87;70.74;99784.41;5026656;28;20042;-74
2024/01/04 03:15:51;;;;;;;72.88;69.03;;;;;;;10.89;70.89;99784.94;5042508;28;20061;-74
2024/01/04 03:18:17;;;;;;;73.63;70.28;;;;;;;10.88;70.71;99798.72;5032886;28;20080;-74
2024/01/04 03:20:42;;;;;;;75.10;71.28;;;;;;;10.87;70.62;99795.22;5022501;28;20379;-74
2024/01/04 03:23:08;;;;;;;70.75;67.45;;;;;;;10.87;70.82;99800.59;5023267;28;20083;-73
2024/01/04 03:25:33;;;;;;;71.30;68.05;;;;;;;10.87;70.83;99799.81;5025517;28;20449;-74
2024/01/04 03:27:58;;;;;;;69.43;65.40;;;;;;;10.87;70.70;99805.22;5023379;28;20125;-72
2024/01/04 03:30:24;;;;;;;77.55;73.95;;;;;;;10.86;70.75;99804.41;5012700;28;20041;-73
2024/01/04 03:32:49;;;;;;;72.32;68.68;;;;;;;10.86;70.67;99815.22;5025215;28;20092;-74
2024/01/04 03:35:15;;;;;;;73.90;70.32;;;;;;;10.86;70.39;99814.38;5027554;28;20037;-73
2024/01/04 03:37:40;;;;;;;73.80;70.43;;;;;;;10.87;70.74;99818.72;5027435;28;20037;-73
2024/01/04 03:40:07;;;;;;;73.47;70.10;;;;;;;10.86;70.45;99814.38;5032032;28;20456;-72
2024/01/04 03:42:32;;;;;;;76.93;72.93;;;;;;;10.87;70.57;99824.13;5021045;28;20082;-73
2024/01/04 03:44:58;;;;;;;73.80;69.97;;;;;;;10.87;70.54;99824.13;5023785;28;20042;-73
2024/01/04 03:47:23;;;;;;;71.38;68.15;;;;;;;10.87;70.65;99829.53;5021501;28;20034;-73
2024/01/04 03:49:49;;;;;;;73.18;69.78;;;;;;;10.86;70.71;99823.31;5027525;28;20065;-73
2024/01/04 03:52:14;;;;;;;69.55;66.25;;;;;;;10.87;70.59;99833.03;5038698;28;20127;-72
2024/01/04 03:54:39;;;;;;;73.85;70.18;;;;;;;10.88;70.50;99831.94;5031468;28;20048;-73
2024/01/04 03:57:05;;;;;;;73.70;70.07;;;;;;;10.88;70.85;99831.94;5029110;28;20041;-74
2024/01/04 03:59:30;;;;;;;75.50;71.90;;;;;;;10.88;70.76;99836.53;5031458;28;20543;-74
2024/01/04 04:01:56;;;;;;;74.82;71.25;;;;;;;10.89;70.66;99835.47;5019198;28;20040;-73
2024/01/04 04:04:22;;;;;;;74.15;70.68;;;;;;;10.89;70.35;99838.19;5037928;28;20036;-74
2024/01/04 04:06:47;;;;;;;77.53;73.93;;;;;;;10.90;70.66;99848.69;5041330;28;20040;-73
2024/01/04 04:09:13;;;;;;;73.35;69.75;;;;;;;10.89;70.65;99847.09;5026750;28;20038;-73
2024/01/04 04:11:38;;;;;;;73.45;70.18;;;;;;;10.88;70.50;99858.97;5011535;28;20037;-75
2024/01/04 04:14:03;;;;;;;73.40;69.63;;;;;;;10.88;70.45;99864.38;5032093;28;20467;-73
2024/01/04 04:16:29;;;;;;;73.43;70.10;;;;;;;10.88;70.25;99864.38;5025152;28;20038;-73
2024/01/04 04:18:54;;;;;;;76.68;73.07;;;;;;;10.86;70.39;99860.31;5028034;28;20084;-72
2024/01/04 04:21:24;;;;;;;74.78;68.85;;;;;;;10.83;70.46;99862.47;5035606;28;20098;-72
2024/01/04 04:23:51;;;;;;;71.57;68.32;;;;;;;10.83;70.70;99861.66;5035648;28;20044;-72
2024/01/04 04:26:20;;;;;;;70.35;66.82;;;;;;;10.84;70.47;99874.09;5008609;28;20413;-71
2024/01/04 04:28:50;;;;;;;72.50;69.18;;;;;;;10.83;70.57;99873.28;5022245;28;20037;-73
2024/01/04 04:31:16;;;;;;;74.28;70.60;;;;;;;10.84;70.54;99876.78;5025348;28;20049;-72
2024/01/04 04:33:44;;;;;;;72.15;68.82;;;;;;;10.86;70.61;99876.50;5021629;28;20084;-72
2024/01/04 04:36:10;;;;;;;82.72;78.93;;;;;;;10.87;70.85;99872.75;5022921;28;20108;-73
2024/01/04 04:38:35;;;;;;;72.07;68.38;;;;;;;10.87;70.60;99883.56;5032131;28;20362;-72
2024/01/04 04:41:02;;;;;;;72.05;68.47;;;;;;;10.86;70.56;99876.50;5021440;28;20467;-72
2024/01/04 04:43:28;;;;;;;71.25;67.65;;;;;;;10.85;70.35;99883.81;5022257;28;20430;-71
2024/01/04 04:45:55;;;;;;;75.32;71.85;;;;;;;10.85;70.71;99881.09;4994664;28;20124;-72
2024/01/04 04:48:20;;;;;;;75.43;71.93;;;;;;;10.85;70.41;99891.91;5029923;28;20078;-72
2024/01/04 04:50:46;;;;;;;74.38;70.55;;;;;;;10.85;70.53;99891.91;5034314;28;20033;-72
2024/01/04 04:53:11;;;;;;;68.60;65.40;;;;;;;10.86;70.37;99895.44;5030136;28;20393;-73
2024/01/04 04:55:36;;;;;;;73.38;70.05;;;;;;;10.85;70.63;99896.50;5021548;28;20040;-72
2024/01/04 04:58:02;;;;;;;72.07;68.28;;;;;;;10.85;70.60;99901.91;5031323;28;20030;-73
2024/01/04 05:00:27;;;;;;;69.47;66.18;;;;;;;10.85;70.70;99907.31;5031577;28;20087;-71
2024/01/04 05:02:53;;;;;;;71.97;68.55;;;;;;;10.84;70.52;99914.63;5030176;28;20116;-74
2024/01/04 05:05:19;;;;;;;78.35;74.55;;;;;;;10.85;70.38;99913.53;5025279;28;20048;-71
2024/01/04 05:07:44;;;;;;;77.32;73.88;;;;;;;10.85;70.57;99915.44;5028485;28;20111;-71
2024/01/04 05:10:09;;;;;;;72.80;69.38;;;;;;;10.84;70.67;99920.03;5016308;28;20037;-71
2024/01/04 05:12:36;;;;;;;75.10;71.70;;;;;;;10.83;70.49;99915.69;5017163;28;20042;-72
2024/01/04 05:15:01;;;;;;;74.60;70.80;;;;;;;10.83;70.59;99915.69;5036147;28;20065;-71
2024/01/04 05:17:27;;;;;;;73.20;69.70;;;;;;;10.83;70.65;99929.19;5021985;28;20551;-71
2024/01/04 05:19:52;;;;;;;66.28;63.25;;;;;;;10.83;70.44;99926.47;5028854;28;20053;-74
2024/01/04 05:22:18;;;;;;;75.63;71.93;;;;;;;10.83;70.70;99937.28;5042106;28;20536;-72
2024/01/04 05:24:43;;;;;;;71.72;68.10;;;;;;;10.83;70.55;99931.88;5030882;28;20045;-72
2024/01/04 05:27:09;;;;;;;74.70;70.70;;;;;;;10.83;70.62;99932.72;5030518;28;20106;-72
2024/01/04 05:29:34;;;;;;;75.30;71.90;;;;;;;10.83;70.74;99942.69;5033355;28;20033;-72
2024/01/04 05:32:01;;;;;;;72.35;68.82;;;;;;;10.82;70.49;99938.38;5029695;28;20386;-72
2024/01/04 05:34:29;;;;;;;70.68;67.53;;;;;;;10.82;70.59;99947.28;5012149;28;20556;-71
2024/01/04 05:36:54;;;;;;;75.55;71.95;;;;;;;10.82;70.27;99941.88;5019968;28;20371;-74
2024/01/04 05:39:20;;;;;;;71.43;68.20;;;;;;;10.82;70.17;99941.09;5027779;28;20036;-72
2024/01/04 05:41:45;;;;;;;71.53;68.32;;;;;;;10.82;70.60;99950.00;5029849;28;20121;-72
2024/01/04 05:44:10;;;;;;;71.28;67.88;;;;;;;10.81;70.61;99950.28;5021576;28;20038;-72
2024/01/04 05:46:36;;;;;;;71.40;67.97;;;;;;;10.81;70.58;99958.38;5010642;28;20445;-72
2024/01/04 05:49:01;;;;;;;71.65;68.25;;;;;;;10.81;70.43;99955.69;5015554;28;20076;-74
2024/01/04 05:51:27;;;;;;;71.25;67.95;;;;;;;10.81;70.53;99966.47;5034122;28;20061;-72
2024/01/04 05:53:52;;;;;;;76.13;72.43;;;;;;;10.80;70.58;99965.66;5018110;28;20048;-72
2024/01/04 05:56:18;;;;;;;72.22;68.40;;;;;;;10.80;70.72;99986.44;5028910;28;20033;-72
2024/01/04 05:58:43;;;;;;;71.70;68.25;;;;;;;10.81;70.33;99974.59;5017074;28;20045;-73
2024/01/04 06:01:09;;;;;;;76.50;72.90;;;;;;;10.82;70.35;99981.59;5017534;28;20029;-71
2024/01/04 06:03:34;;;;;;;72.05;68.80;;;;;;;10.82;70.41;99978.91;5033461;28;20528;-71
2024/01/04 06:06:00;;;;;;;72.68;69.35;;;;;;;10.83;70.57;99981.34;5022918;28;20037;-71
2024/01/04 06:08:25;;;;;;;70.93;67.72;;;;;;;10.83;70.48;99981.34;5034189;28;20179;-71
2024/01/04 06:10:51;;;;;;;73.82;70.47;;;;;;;10.82;70.29;99979.72;5033710;28;20041;-73
2024/01/04 06:13:18;;;;;;;72.35;68.90;;;;;;;10.82;70.53;99990.50;5032690;28;20044;-72
2024/01/04 06:15:45;;;;;;;72.90;69.63;;;;;;;10.82;70.52;99993.22;5041079;28;20493;-72
2024/01/04 06:18:11;;;;;;;72.30;69.00;;;;;;;10.82;70.38;99992.41;5033996;28;20037;-72
2024/01/04 06:20:38;;;;;;;75.30;71.80;;;;;;;10.81;70.39;99991.59;5030664;28;20397;-72
2024/01/04 06:23:03;;;;;;;71.72;68.40;;;;;;;10.82;70.41;100001.31;5037358;28;20387;-72
2024/01/04 06:25:29;;;;;;;72.00;68.78;;;;;;;10.82;70.42;99997.81;5031994;28;20485;-72
2024/01/04 06:27:55;;;;;;;74.78;71.38;;;;;;;10.81;70.13;99993.50;5021676;28;20042;-72
2024/01/04 06:30:20;;;;;;;74.95;71.57;;;;;;;10.80;70.21;99997.25;5021737;28;20042;-71
2024/01/04 06:32:45;;;;;;;70.45;67.05;;;;;;;10.78;70.29;99994.81;5018787;28;20041;-74
2024/01/04 06:35:11;;;;;;;72.38;69.07;;;;;;;10.76;70.23;99998.84;5042752;28;20119;-74
2024/01/04 06:37:37;;;;;;;71.05;67.85;;;;;;;10.76;70.42;100015.88;5016927;28;20466;-72
2024/01/04 06:40:05;;;;;;;71.25;67.95;;;;;;;10.75;70.54;100014.25;5016188;28;20473;-75
2024/01/04 06:42:31;;;;;;;70.10;66.97;;;;;;;10.75;70.32;100016.13;5016798;28;20048;-74
2024/01/04 06:44:56;;;;;;;70.78;67.50;;;;;;;10.75;70.35;100016.94;5028251;28;20042;-74
2024/01/04 06:47:21;;;;;;;69.38;66.28;;;;;;;10.74;70.39;100022.63;5014873;28;20375;-75
2024/01/04 06:49:47;;;;;;;72.15;68.90;;;;;;;10.71;70.45;100032.06;5033718;28;20038;-74
2024/01/04 06:52:12;;;;;;;74.07;70.65;;;;;;;10.72;70.42;100043.69;5024818;28;20493;-74
2024/01/04 06:54:38;;;;;;;72.13;68.13;;;;;;;10.73;70.45;100048.81;5030581;28;20038;-75
2024/01/04 06:57:06;;;;;;;69.40;66.25;;;;;;;10.72;70.27;100049.88;5019474;28;20039;-78
2024/01/04 06:59:32;;;;;;;72.68;69.00;;;;;;;10.72;70.38;100055.28;5037659;28;20141;-70
2024/01/04 07:01:57;;;;;;;69.88;66.57;;;;;;;10.71;70.21;100059.09;5026235;28;20636;-70
2024/01/04 07:04:22;;;;;;;72.38;68.97;;;;;;;10.71;70.26;100061.78;5032558;28;20038;-71
2024/01/04 07:06:48;;;;;;;72.97;69.28;;;;;;;10.71;70.40;100061.78;5025450;28;20041;-71
2024/01/04 07:09:14;;;;;;;71.90;68.40;;;;;;;10.71;70.23;100066.34;5023734;28;20108;-71
2024/01/04 07:11:39;;;;;;;69.35;66.22;;;;;;;10.71;70.27;100072.59;5037020;28;20124;-71
2024/01/04 07:14:05;;;;;;;74.35;70.75;;;;;;;10.70;70.25;100076.34;5026069;28;20366;-71
2024/01/04 07:16:30;;;;;;;69.80;66.68;;;;;;;10.70;70.26;100081.75;5021770;28;20100;-71
2024/01/04 07:18:55;;;;;;;73.50;70.10;;;;;;;10.69;70.48;100080.13;5025449;28;20050;-71
2024/01/04 07:21:21;;;;;;;74.53;71.03;;;;;;;10.70;70.51;100075.53;5026980;28;20125;-71
2024/01/04 07:23:46;;;;;;;73.15;69.63;;;;;;;10.69;70.37;100073.91;5038998;28;20033;-71
2024/01/04 07:26:11;;;;;;;72.30;68.95;;;;;;;10.70;70.39;100075.53;5026536;28;20428;-71
2024/01/04 07:28:37;;;;;;;72.00;68.60;;;;;;;10.70;70.26;100070.94;5037875;28;20037;-71
2024/01/04 07:31:02;;;;;;;67.78;64.28;;;;;;;10.71;70.26;100078.00;5013190;28;20092;-71
2024/01/04 07:33:28;;;;;;;68.25;64.95;;;;;;;10.71;70.34;100074.44;5020644;28;20049;-71
2024/01/04 07:35:53;;;;;;;70.97;67.65;;;;;;;10.71;70.42;100085.25;5022478;28;20092;-71
2024/01/04 07:38:19;;;;;;;71.97;68.35;;;;;;;10.69;70.31;100096.34;5017177;28;20041;-72
2024/01/04 07:40:44;;;;;;;69.00;65.80;;;;;;;10.68;70.36;100104.69;5049443;28;20040;-71
2024/01/04 07:43:11;;;;;;;68.55;65.45;;;;;;;10.68;70.34;100101.97;5038441;28;20033;-72
2024/01/04 07:45:37;;;;;;;69.60;66.50;;;;;;;10.67;70.21;100105.78;5031368;28;20033;-71
2024/01/04 07:48:03;;;;;;;72.47;68.97;;;;;;;10.68;70.47;100112.78;5026729;28;20033;-72
2024/01/04 07:50:28;;;;;;;68.82;65.57;;;;;;;10.67;70.52;100113.88;5011249;28;20041;-72
2024/01/04 07:52:54;;;;;;;70.05;66.88;;;;;;;10.66;70.43;100117.63;5020696;28;20120;-72
2024/01/04 07:55:20;;;;;;;68.63;65.43;;;;;;;10.65;70.37;100119.53;5023137;28;20069;-72
2024/01/04 07:57:46;;;;;;;75.15;71.38;;;;;;;10.64;70.34;100123.31;5043201;28;20125;-71
2024/01/04 08:00:12;;;;;;;71.85;68.63;;;;;;;10.63;70.40;100121.66;5030193;28;20026;-74
2024/01/04 08:02:39;;;;;;;75.65;71.88;;;;;;;10.61;70.18;100129.22;5028239;28;20050;-71
2024/01/04 08:05:04;;;;;;;69.63;66.47;;;;;;;10.61;70.25;100126.53;5026157;28;20038;-72
2024/01/04 08:07:30;;;;;;;69.40;66.13;;;;;;;10.59;70.15;100129.47;5041623;28;20041;-72
2024/01/04 08:09:56;;;;;;;74.40;71.10;;;;;;;10.59;70.29;100131.38;5037321;28;20028;-72
2024/01/04 08:12:21;;;;;;;68.43;65.15;;;;;;;10.57;70.40;100134.31;5015056;28;20042;-71
2024/01/04 08:14:46;;;;;;;65.25;62.30;;;;;;;10.58;70.46;100141.38;5014431;28;20038;-71
2024/01/04 08:17:12;;;;;;;71.28;68.07;;;;;;;10.57;70.21;100137.00;5022951;28;20068;-71
2024/01/04 08:19:37;;;;;;;69.28;66.18;;;;;;;10.57;70.17;100138.91;4990476;28;1119730;-73
2024/01/04 08:22:03;;;;;;;68.28;65.18;;;;;;;10.57;70.33;100152.41;5021654;28;20042;-73
2024/01/04 08:24:28;;;;;;;68.57;65.38;;;;;;;10.56;70.30;100143.50;5023112;28;20065;-73
2024/01/04 08:26:54;;;;;;;69.55;66.43;;;;;;;10.58;70.40;100151.31;5023947;28;20041;-72
2024/01/04 08:29:20;;;;;;;70.65;67.25;;;;;;;10.58;70.46;100156.72;5031637;28;20348;-72
2024/01/04 08:31:45;;;;;;;73.38;69.97;;;;;;;10.58;70.38;100154.88;5031765;28;20037;-72
2024/01/04 08:34:10;;;;;;;70.85;67.45;;;;;;;10.60;70.30;100162.69;5022930;28;20053;-73
2024/01/04 08:36:36;;;;;;;72.82;69.43;;;;;;;10.58;70.38;100162.97;5012241;28;20032;-72
2024/01/04 08:39:03;;;;;;;70.00;66.80;;;;;;;10.60;70.34;100162.69;5035920;28;20036;-71
2024/01/04 08:41:28;;;;;;;69.53;66.30;;;;;;;10.60;70.28;100170.78;5027208;28;20461;-70
2024/01/04 08:43:56;;;;;;;70.38;67.07;;;;;;;10.62;70.34;100168.66;5030511;28;20040;-71
2024/01/04 08:46:21;;;;;;;73.65;70.13;;;;;;;10.61;70.43;100169.75;5015478;28;20496;-72
2024/01/04 08:48:47;;;;;;;73.53;69.65;;;;;;;10.61;70.36;100167.03;5011949;28;20034;-72
2024/01/04 08:51:12;;;;;;;70.13;66.95;;;;;;;10.59;70.37;100167.28;5015555;28;20034;-71
2024/01/04 08:53:38;;;;;;;69.40;66.22;;;;;;;10.61;70.26;100185.94;5029935;28;20041;-71
2024/01/04 08:56:08;;;;;;;66.40;63.40;;;;;;;10.62;70.47;100187.56;5021095;28;20037;-71
2024/01/04 08:58:34;;;;;;;70.43;67.13;;;;;;;10.61;70.33;100200.25;5029146;28;20132;-72
2024/01/04 09:00:59;;;;;;;69.63;66.38;;;;;;;10.63;70.26;100196.47;5026762;28;20038;-72
2024/01/04 09:03:25;;;;;;;74.47;71.07;;;;;;;10.61;70.18;100197.56;5019493;28;20128;-71
2024/01/04 09:05:50;;;;;;;71.90;68.40;;;;;;;10.60;70.30;100201.31;5020788;28;20040;-76
2024/01/04 09:08:16;;;;;;;67.85;64.75;;;;;;;10.60;70.07;100209.41;5019072;28;20037;-70
2024/01/04 09:10:41;;;;;;;74.22;70.80;;;;;;;10.59;70.15;100207.78;5017634;28;20045;-71
2024/01/04 09:13:06;;;;;;;69.03;65.93;;;;;;;10.59;70.51;100213.19;5033681;28;20041;-71
2024/01/04 09:15:32;;;;;;;72.13;68.80;;;;;;;10.59;70.38;100199.69;5029103;28;20571;-71
2024/01/04 09:17:57;;;;;;;69.90;66.70;;;;;;;10.59;69.80;100209.69;5034226;28;20037;-71
2024/01/04 09:20:24;;;;;;;69.90;66.68;;;;;;;10.57;70.28;100209.94;5016314;28;20077;-71
2024/01/04 09:22:50;;;;;;;70.28;67.07;;;;;;;10.57;70.21;100209.13;5028710;28;20041;-72
2024/01/04 09:25:15;;;;;;;64.82;61.70;;;;;;;10.55;70.18;100206.66;5026282;28;20462;-71
2024/01/04 09:27:41;;;;;;;65.25;62.30;;;;;;;10.55;70.24;100198.56;5016567;28;20128;-71
2024/01/04 09:30:06;;;;;;;67.20;64.18;;;;;;;10.56;70.39;100210.22;5021026;28;20038;-71
2024/01/04 09:32:32;;;;;;;73.15;69.80;;;;;;;10.56;70.43;100213.72;5027541;28;20504;-71
2024/01/04 09:34:57;;;;;;;69.00;65.88;;;;;;;10.56;70.26;100211.03;5029817;28;20181;-71
2024/01/04 09:37:22;;;;;;;69.70;66.50;;;;;;;10.56;70.39;100213.72;5029089;28;20055;-73
2024/01/04 09:39:48;;;;;;;72.03;68.82;;;;;;;10.58;70.24;100226.94;5030020;28;20033;-72
2024/01/04 09:42:16;;;;;;;69.78;66.60;;;;;;;10.57;70.05;100228.84;5028321;28;20041;-71
2024/01/04 09:44:45;;;;;;;70.00;66.85;;;;;;;10.57;70.34;100231.53;5033897;28;20053;-71
2024/01/04 09:47:14;;;;;;;68.70;65.60;;;;;;;10.58;70.47;100240.44;5029138;28;20083;-73
2024/01/04 09:49:42;;;;;;;75.38;71.90;;;;;;;10.58;70.21;100243.16;5029616;28;20040;-72
2024/01/04 09:52:11;;;;;;;68.75;65.65;;;;;;;10.60;70.58;100249.13;5027945;28;20037;-74
2024/01/04 09:54:39;;;;;;;70.78;67.47;;;;;;;10.61;70.27;100256.16;5010288;28;20053;-72
2024/01/04 09:57:08;;;;;;;67.85;64.75;;;;;;;10.61;70.34;100261.56;5010493;28;20037;-72
2024/01/04 09:59:34;;;;;;;73.38;69.88;;;;;;;10.62;70.24;100255.09;5009609;28;20037;-71
2024/01/04 10:02:01;;;;;;;72.20;69.00;;;;;;;10.63;70.33;100261.28;5017212;28;20029;-70
2024/01/04 10:04:27;;;;;;;70.90;67.38;;;;;;;10.63;70.25;100266.69;5009768;28;20577;-72
2024/01/04 10:06:55;;;;;;;71.07;67.88;;;;;;;10.63;70.32;100275.63;5034667;28;20048;-70
2024/01/04 10:10:04;;;;;;;69.00;65.85;;;;;;;10.62;70.05;100274.00;5030223;28;20057;-72
2024/01/04 10:12:32;;;;;;;65.50;62.47;;;;;;;10.61;70.08;100275.06;5021210;28;20037;-71
2024/01/04 10:14:58;;;;;;;71.25;67.43;;;;;;;10.60;70.16;100284.22;5013238;28;20049;-71
2024/01/04 10:17:24;;;;;;;69.07;65.93;;;;;;;10.61;70.18;100278.59;5031063;28;20383;-71
2024/01/04 10:19:49;;;;;;;77.25;73.85;;;;;;;10.61;70.20;100283.19;5009688;28;20049;-71
2024/01/04 10:22:21;;;;;;;68.82;65.65;;;;;;;10.61;70.15;100284.00;5009798;28;20034;-71
2024/01/04 10:24:47;;;;;;;68.60;65.30;;;;;;;10.61;70.34;100277.78;5026401;28;20466;-71
2024/01/04 10:27:15;;;;;;;67.10;64.05;;;;;;;10.61;70.27;100286.69;5030377;28;20063;-72
2024/01/04 10:29:43;;;;;;;71.10;67.80;;;;;;;10.61;70.21;100281.28;5035552;28;20099;-71
2024/01/04 10:32:13;;;;;;;72.47;69.13;;;;;;;10.60;70.19;100285.03;5025137;28;20038;-72
2024/01/04 10:34:39;;;;;;;68.75;65.55;;;;;;;10.59;70.16;100282.59;5029383;28;20860;-71
2024/01/04 10:37:09;;;;;;;69.30;66.20;;;;;;;10.59;70.18;100285.31;5013029;28;20030;-73
2024/01/04 10:39:39;;;;;;;68.10;64.95;;;;;;;10.59;70.28;100291.53;5009753;28;20030;-71
2024/01/04 10:42:06;;;;;;;72.18;68.82;;;;;;;10.59;70.24;100286.13;5009793;28;20026;-71
2024/01/04 10:44:34;;;;;;;69.85;66.68;;;;;;;10.59;70.34;100296.13;5015474;28;20541;-71
2024/01/04 10:47:01;;;;;;;71.72;68.45;;;;;;;10.59;70.29;100299.63;5029788;28;20040;-72
2024/01/04 10:49:27;;;;;;;71.53;68.03;;;;;;;10.58;70.35;100292.59;5032570;28;20083;-71
2024/01/04 10:51:56;;;;;;;72.97;68.70;;;;;;;10.58;70.15;100298.00;5033428;28;20049;-71
2024/01/04 10:54:30;;;;;;;72.57;69.28;;;;;;;10.59;70.28;100291.53;5018280;28;20437;-72
2024/01/04 10:56:58;;;;;;;73.03;69.72;;;;;;;10.58;70.07;100292.59;5030715;28;20028;-71
2024/01/04 10:59:25;;;;;;;71.60;68.30;;;;;;;10.57;70.20;100288.25;5013041;28;20096;-71
2024/01/04 11:01:51;;;;;;;71.53;68.28;;;;;;;10.59;70.50;100298.81;5040211;28;20501;-71
2024/01/04 11:04:17;;;;;;;67.38;64.38;;;;;;;10.59;70.52;100290.72;5029745;28;20038;-72
2024/01/04 11:06:43;;;;;;;68.22;65.00;;;;;;;10.58;70.32;100295.31;5014223;28;20042;-71
2024/01/04 11:09:09;;;;;;;69.32;66.18;;;;;;;10.59;70.50;100301.50;5041585;28;20068;-72